createdAt,value
2018-11-25T00:01:59.980Z,8.50
2018-11-25T00:04:28.335Z,8.50
2018-11-25T00:06:56.705Z,8.60
2018-11-25T00:09:25.047Z,8.50
2018-11-25T00:11:53.404Z,8.50
2018-11-25T00:14:21.879Z,8.50
2018-11-25T00:16:50.234Z,8.50
2018-11-25T00:19:18.587Z,8.40
2018-11-25T00:21:46.965Z,8.40
2018-11-25T00:24:15.390Z,8.30
2018-11-25T00:26:43.771Z,8.30
2018-11-25T00:29:12.132Z,8.30
2018-11-25T00:31:41.497Z,8.20
2018-11-25T00:34:09.844Z,8.20
2018-11-25T00:36:38.227Z,8.20
2018-11-25T00:39:08.879Z,8.20
2018-11-25T00:41:37.261Z,8.20
2018-11-25T00:44:06.384Z,8.20
2018-11-25T00:46:34.806Z,8.30
2018-11-25T00:49:03.156Z,8.30
2018-11-25T00:51:32.507Z,8.30
2018-11-25T00:54:00.945Z,8.30
2018-11-25T00:56:29.321Z,8.30
2018-11-25T00:58:57.709Z,8.40
2018-11-25T01:01:26.123Z,8.40
2018-11-25T01:03:54.505Z,8.40
2018-11-25T01:06:22.892Z,8.50
2018-11-25T01:08:51.256Z,8.40
2018-11-25T01:11:19.635Z,8.50
2018-11-25T01:13:48.042Z,8.40
2018-11-25T01:16:16.435Z,8.40
2018-11-25T01:18:44.815Z,8.40
2018-11-25T01:21:13.161Z,8.40
2018-11-25T01:23:41.529Z,8.50
2018-11-25T01:26:10.003Z,8.40
2018-11-25T01:28:38.391Z,8.50
2018-11-25T01:31:06.796Z,8.60
2018-11-25T01:33:35.186Z,8.50
2018-11-25T01:36:03.567Z,8.40
2018-11-25T01:38:31.947Z,8.40
2018-11-25T01:41:00.291Z,8.40
2018-11-25T01:43:28.663Z,8.40
2018-11-25T01:45:57.034Z,8.40
2018-11-25T01:48:25.423Z,8.50
2018-11-25T01:50:53.998Z,8.40
2018-11-25T01:53:22.402Z,8.40
2018-11-25T01:55:50.786Z,8.40
2018-11-25T01:58:19.185Z,8.40
2018-11-25T02:00:47.556Z,8.40
2018-11-25T02:03:15.903Z,8.40
2018-11-25T02:05:44.283Z,8.40
2018-11-25T02:08:12.647Z,8.40
2018-11-25T02:10:41.025Z,8.40
2018-11-25T02:13:09.401Z,8.40
2018-11-25T02:15:37.795Z,8.40
2018-11-25T02:18:06.254Z,8.40
2018-11-25T02:20:34.635Z,8.30
2018-11-25T02:23:03.066Z,8.30
2018-11-25T02:25:31.455Z,8.30
2018-11-25T02:27:59.972Z,8.30
2018-11-25T02:30:28.355Z,8.30
2018-11-25T02:32:56.823Z,8.20
2018-11-25T02:35:25.285Z,8.20
2018-11-25T02:37:53.623Z,8.20
2018-11-25T02:40:21.995Z,8.20
2018-11-25T02:42:50.348Z,8.20
2018-11-25T02:45:19.288Z,8.20
2018-11-25T02:47:47.658Z,8.20
2018-11-25T02:50:32.674Z,8.20
2018-11-25T02:53:03.215Z,8.20
2018-11-25T02:55:31.613Z,8.20
2018-11-25T02:58:00.883Z,8.20
2018-11-25T03:00:28.403Z,8.20
2018-11-25T03:02:56.722Z,8.20
2018-11-25T03:05:25.091Z,8.20
2018-11-25T03:07:53.408Z,8.30
2018-11-25T03:10:21.773Z,8.20
2018-11-25T03:12:50.119Z,8.30
2018-11-25T03:15:18.904Z,8.30
2018-11-25T03:17:47.209Z,8.30
2018-11-25T03:20:16.490Z,8.30
2018-11-25T03:22:44.835Z,8.20
2018-11-25T03:25:15.607Z,8.20
2018-11-25T03:27:43.936Z,8.30
2018-11-25T03:30:16.730Z,8.20
2018-11-25T03:32:45.848Z,8.20
2018-11-25T03:35:14.715Z,8.20
2018-11-25T03:37:43.071Z,8.20
2018-11-25T03:40:12.590Z,8.20
2018-11-25T03:42:40.951Z,8.20
2018-11-25T03:45:14.675Z,8.20
2018-11-25T03:47:43.011Z,8.20
2018-11-25T03:50:12.291Z,8.10
2018-11-25T03:52:40.685Z,8.10
2018-11-25T03:55:11.308Z,8.10
2018-11-25T03:57:39.718Z,8.20
2018-11-25T04:00:15.364Z,8.20
2018-11-25T04:02:43.674Z,8.20
2018-11-25T04:05:14.248Z,8.30
2018-11-25T04:07:42.579Z,8.30
2018-11-25T04:10:12.145Z,8.30
2018-11-25T04:12:40.482Z,8.30
2018-11-25T04:15:13.746Z,8.30
2018-11-25T04:17:42.204Z,8.30
2018-11-25T04:20:14.556Z,8.30
2018-11-25T04:22:42.896Z,8.20
2018-11-25T04:25:11.942Z,8.20
2018-11-25T04:27:40.286Z,8.20
2018-11-25T04:30:12.571Z,8.20
2018-11-25T04:32:41.080Z,8.10
2018-11-25T04:35:10.464Z,8.10
2018-11-25T04:37:38.961Z,8.10
2018-11-25T04:40:11.507Z,8.10
2018-11-25T04:42:39.876Z,8.10
2018-11-25T04:45:09.794Z,8.10
2018-11-25T04:47:38.418Z,8.00
2018-11-25T04:50:11.213Z,8.00
2018-11-25T04:52:39.591Z,7.90
2018-11-25T04:55:08.253Z,7.80
2018-11-25T04:57:36.719Z,7.90
2018-11-25T05:00:09.975Z,7.90
2018-11-25T05:02:38.714Z,7.90
2018-11-25T05:05:08.694Z,7.80
2018-11-25T05:07:37.043Z,7.80
2018-11-25T05:10:07.178Z,7.70
2018-11-25T05:12:35.548Z,7.60
2018-11-25T05:15:03.917Z,7.70
2018-11-25T05:17:32.258Z,7.60
2018-11-25T05:20:00.603Z,7.70
2018-11-25T05:22:28.944Z,7.70
2018-11-25T05:24:57.279Z,7.70
2018-11-25T05:27:25.604Z,7.80
2018-11-25T05:29:53.937Z,7.70
2018-11-25T05:32:22.255Z,7.70
2018-11-25T05:34:50.586Z,7.80
2018-11-25T05:37:18.907Z,7.80
2018-11-25T05:39:47.235Z,7.90
2018-11-25T05:42:15.552Z,7.90
2018-11-25T05:44:43.903Z,7.80
2018-11-25T05:47:12.227Z,7.80
2018-11-25T05:49:40.588Z,7.90
2018-11-25T05:52:08.920Z,7.80
2018-11-25T05:54:37.271Z,7.80
2018-11-25T05:57:05.633Z,7.80
2018-11-25T05:59:34.422Z,7.80
2018-11-25T06:02:02.319Z,7.80
2018-11-25T06:04:30.691Z,7.70
2018-11-25T06:06:59.031Z,7.60
2018-11-25T06:09:27.391Z,7.60
2018-11-25T06:11:55.749Z,7.50
2018-11-25T06:14:24.100Z,7.40
2018-11-25T06:16:52.431Z,7.40
2018-11-25T06:19:20.780Z,7.40
2018-11-25T06:21:49.100Z,7.40
2018-11-25T06:24:17.455Z,7.40
2018-11-25T06:26:45.804Z,7.50
2018-11-25T06:29:14.165Z,7.50
2018-11-25T06:31:42.563Z,7.50
2018-11-25T06:34:10.894Z,7.50
2018-11-25T06:36:39.267Z,7.40
2018-11-25T06:39:09.147Z,7.40
2018-11-25T06:41:37.495Z,7.50
2018-11-25T06:44:06.321Z,7.40
2018-11-25T06:46:34.672Z,7.40
2018-11-25T06:49:03.014Z,7.40
2018-11-25T06:51:31.376Z,7.40
2018-11-25T06:53:59.700Z,7.40
2018-11-25T06:56:28.090Z,7.40
2018-11-25T06:58:56.609Z,7.40
2018-11-25T07:01:24.984Z,7.50
2018-11-25T07:03:53.318Z,7.50
2018-11-25T07:06:21.656Z,7.40
2018-11-25T07:08:49.997Z,7.50
2018-11-25T07:11:18.343Z,7.50
2018-11-25T07:13:46.851Z,7.50
2018-11-25T07:16:15.208Z,7.50
2018-11-25T07:18:43.547Z,7.60
2018-11-25T07:21:11.895Z,7.60
2018-11-25T07:23:40.225Z,7.70
2018-11-25T07:26:08.617Z,7.70
2018-11-25T07:28:36.948Z,7.70
2018-11-25T07:31:06.239Z,7.80
2018-11-25T07:33:34.570Z,8.00
2018-11-25T07:36:02.951Z,8.00
2018-11-25T07:38:31.320Z,8.00
2018-11-25T07:40:59.661Z,8.10
2018-11-25T07:43:27.995Z,8.00
2018-11-25T07:45:56.364Z,8.10
2018-11-25T07:48:24.715Z,8.10
2018-11-25T07:50:53.072Z,8.20
2018-11-25T07:53:21.440Z,8.30
2018-11-25T07:55:50.451Z,8.40
2018-11-25T07:58:18.807Z,8.40
2018-11-25T08:00:47.138Z,8.50
2018-11-25T08:03:15.500Z,8.50
2018-11-25T08:05:43.831Z,8.60
2018-11-25T08:08:12.200Z,8.60
2018-11-25T08:10:40.543Z,8.60
2018-11-25T08:13:08.917Z,8.50
2018-11-25T08:15:37.268Z,8.50
2018-11-25T08:18:06.031Z,8.40
2018-11-25T08:20:34.673Z,8.50
2018-11-25T08:23:03.039Z,8.60
2018-11-25T08:25:31.416Z,8.70
2018-11-25T08:27:59.780Z,8.70
2018-11-25T08:30:28.134Z,8.60
2018-11-25T08:32:56.623Z,8.60
2018-11-25T08:35:24.993Z,8.50
2018-11-25T08:37:53.346Z,8.50
2018-11-25T08:40:22.807Z,8.50
2018-11-25T08:42:51.459Z,8.60
2018-11-25T08:45:19.829Z,8.70
2018-11-25T08:47:48.180Z,8.80
2018-11-25T08:50:18.181Z,8.60
2018-11-25T08:52:52.587Z,8.60
2018-11-25T08:55:22.981Z,8.60
2018-11-25T08:57:51.519Z,8.60
2018-11-25T09:00:20.819Z,8.60
2018-11-25T09:02:50.080Z,8.70
2018-11-25T09:05:18.451Z,8.70
2018-11-25T09:07:46.794Z,8.70
2018-11-25T09:10:18.311Z,8.70
2018-11-25T09:12:55.171Z,8.70
2018-11-25T09:15:24.455Z,8.70
2018-11-25T09:17:52.880Z,8.80
2018-11-25T09:20:22.131Z,8.90
2018-11-25T09:22:51.219Z,9.00
2018-11-25T09:25:24.916Z,9.10
2018-11-25T09:27:53.382Z,9.10
2018-11-25T09:30:23.026Z,9.30
2018-11-25T09:32:51.399Z,9.30
2018-11-25T09:35:19.997Z,9.40
2018-11-25T09:37:48.396Z,9.50
2018-11-25T09:40:20.003Z,9.60
2018-11-25T09:42:48.359Z,9.70
2018-11-25T09:45:18.912Z,9.90
2018-11-25T09:47:47.715Z,9.90
2018-11-25T09:50:17.079Z,10.00
2018-11-25T09:52:45.613Z,10.10
2018-11-25T09:55:16.987Z,10.20
2018-11-25T09:57:46.643Z,11.50
2018-11-25T10:00:20.434Z,10.20
2018-11-25T10:02:48.805Z,10.00
2018-11-25T10:05:17.202Z,10.00
2018-11-25T10:07:45.937Z,10.10
2018-11-25T10:10:15.507Z,9.70
2018-11-25T10:12:43.966Z,9.80
2018-11-25T10:15:13.443Z,9.90
2018-11-25T10:17:41.791Z,9.50
2018-11-25T10:20:14.495Z,9.40
2018-11-25T10:22:42.827Z,9.50
2018-11-25T10:25:12.417Z,9.60
2018-11-25T10:27:40.838Z,9.40
2018-11-25T10:30:19.008Z,9.00
2018-11-25T10:32:48.767Z,8.90
2018-11-25T10:35:17.232Z,9.00
2018-11-25T10:37:45.604Z,9.10
2018-11-25T10:40:16.032Z,9.30
2018-11-25T10:42:44.672Z,9.60
2018-11-25T10:45:17.161Z,9.70
2018-11-25T10:47:45.515Z,9.80
2018-11-25T10:50:14.884Z,9.90
2018-11-25T10:52:43.415Z,9.80
2018-11-25T10:55:12.812Z,9.90
2018-11-25T10:57:41.868Z,9.90
2018-11-25T11:00:24.622Z,9.90
2018-11-25T11:03:56.890Z,9.80
2018-11-25T11:06:31.143Z,9.60
2018-11-25T11:08:59.491Z,9.50
2018-11-25T11:11:27.863Z,9.50
2018-11-25T11:13:56.236Z,9.50
2018-11-25T11:16:24.654Z,9.60
2018-11-25T11:18:53.338Z,9.50
2018-11-25T11:21:21.723Z,9.70
2018-11-25T11:23:50.082Z,9.70
2018-11-25T11:26:25.305Z,9.70
2018-11-25T11:28:53.698Z,9.80
2018-11-25T11:31:22.076Z,9.80
2018-11-25T11:33:51.223Z,10.00
2018-11-25T11:36:19.614Z,9.80
2018-11-25T11:38:48.088Z,9.80
2018-11-25T11:41:16.455Z,9.70
2018-11-25T11:43:44.892Z,9.70
2018-11-25T11:46:13.450Z,9.80
2018-11-25T11:48:41.828Z,10.10
2018-11-25T11:51:10.224Z,10.20
2018-11-25T11:53:38.635Z,10.00
2018-11-25T11:56:07.063Z,10.00
2018-11-25T11:58:35.492Z,10.00
2018-11-25T12:01:03.887Z,9.90
2018-11-25T12:03:32.272Z,9.90
2018-11-25T12:06:00.604Z,10.00
2018-11-25T12:08:29.006Z,9.80
2018-11-25T12:10:57.396Z,9.70
2018-11-25T12:13:25.748Z,9.70
2018-11-25T12:15:54.111Z,9.70
2018-11-25T12:18:22.635Z,9.80
2018-11-25T12:20:51.107Z,9.90
2018-11-25T12:23:19.551Z,9.90
2018-11-25T12:25:47.916Z,9.90
2018-11-25T12:28:16.435Z,10.00
2018-11-25T12:30:44.911Z,10.00
2018-11-25T12:33:13.361Z,9.90
2018-11-25T12:35:41.749Z,9.90
2018-11-25T12:38:10.126Z,10.00
2018-11-25T12:40:38.522Z,10.00
2018-11-25T12:43:07.317Z,10.10
2018-11-25T12:45:35.679Z,10.10
2018-11-25T12:48:04.085Z,10.00
2018-11-25T12:50:32.576Z,10.00
2018-11-25T12:53:00.966Z,9.90
2018-11-25T12:55:29.413Z,9.90
2018-11-25T12:57:58.117Z,9.70
2018-11-25T13:00:33.067Z,9.70
2018-11-25T13:03:01.641Z,9.70
2018-11-25T13:05:30.027Z,9.70
2018-11-25T13:07:58.394Z,9.80
2018-11-25T13:10:26.791Z,9.80
2018-11-25T13:12:55.199Z,9.80
2018-11-25T13:15:23.675Z,9.80
2018-11-25T13:17:52.082Z,9.60
2018-11-25T13:20:20.554Z,9.60
2018-11-25T13:22:48.925Z,9.60
2018-11-25T13:25:17.913Z,9.60
2018-11-25T13:27:46.276Z,9.50
2018-11-25T13:30:20.305Z,9.60
2018-11-25T13:32:49.287Z,9.60
2018-11-25T13:35:17.720Z,9.50
2018-11-25T13:37:46.209Z,9.50
2018-11-25T13:40:15.598Z,9.30
2018-11-25T13:42:43.980Z,9.30
2018-11-25T13:45:12.418Z,9.30
2018-11-25T13:47:40.849Z,9.40
2018-11-25T13:50:10.369Z,9.50
2018-11-25T13:52:38.945Z,9.50
2018-11-25T13:55:10.896Z,9.40
2018-11-25T13:57:39.507Z,9.50
2018-11-25T14:00:13.625Z,9.50
2018-11-25T14:02:41.964Z,9.60
2018-11-25T14:05:10.348Z,9.70
2018-11-25T14:07:38.736Z,9.80
2018-11-25T14:10:12.927Z,9.50
2018-11-25T14:12:41.288Z,9.50
2018-11-25T14:15:10.840Z,9.40
2018-11-25T14:17:39.275Z,9.50
2018-11-25T14:20:09.240Z,9.50
2018-11-25T14:22:37.583Z,9.50
2018-11-25T14:25:10.804Z,9.50
2018-11-25T14:27:39.245Z,9.60
2018-11-25T14:30:14.975Z,9.50
2018-11-25T14:32:43.395Z,9.50
2018-11-25T14:35:13.463Z,9.50
2018-11-25T14:37:41.844Z,9.40
2018-11-25T14:40:11.715Z,9.40
2018-11-25T14:42:40.123Z,9.40
2018-11-25T14:45:13.315Z,9.40
2018-11-25T14:47:41.852Z,9.30
2018-11-25T14:50:11.791Z,9.40
2018-11-25T14:52:40.672Z,9.40
2018-11-25T14:55:11.358Z,9.50
2018-11-25T14:57:40.840Z,9.50
2018-11-25T15:00:12.201Z,9.40
2018-11-25T15:02:40.595Z,9.40
2018-11-25T15:05:12.657Z,9.40
2018-11-25T15:07:41.027Z,9.40
2018-11-25T15:10:10.759Z,9.40
2018-11-25T15:12:37.886Z,9.40
2018-11-25T15:15:10.291Z,9.50
2018-11-25T15:17:38.751Z,9.40
2018-11-25T15:20:09.645Z,9.40
2018-11-25T15:22:38.570Z,9.40
2018-11-25T15:25:10.321Z,9.40
2018-11-25T15:27:38.708Z,9.40
2018-11-25T15:30:09.998Z,9.40
2018-11-25T15:32:38.418Z,9.30
2018-11-25T15:35:09.605Z,9.30
2018-11-25T15:37:39.451Z,9.30
2018-11-25T15:40:19.584Z,9.30
2018-11-25T15:42:48.015Z,9.30
2018-11-25T15:45:16.546Z,9.30
2018-11-25T15:47:47.845Z,9.30
2018-11-25T15:50:18.864Z,9.20
2018-11-25T15:52:47.254Z,9.20
2018-11-25T15:55:15.701Z,9.20
2018-11-25T15:57:44.128Z,9.20
2018-11-25T16:00:19.592Z,9.20
2018-11-25T16:02:48.119Z,9.10
2018-11-25T16:05:19.891Z,9.10
2018-11-25T16:07:48.320Z,9.00
2018-11-25T16:10:16.713Z,9.00
2018-11-25T16:12:46.469Z,9.00
2018-11-25T16:15:16.703Z,8.90
2018-11-25T16:17:45.119Z,8.90
2018-11-25T16:20:21.438Z,8.90
2018-11-25T16:22:51.616Z,8.90
2018-11-25T16:25:39.193Z,8.80
2018-11-25T16:28:10.933Z,8.80
2018-11-25T16:30:39.324Z,8.80
2018-11-25T16:33:07.853Z,8.70
2018-11-25T16:35:36.239Z,8.70
2018-11-25T16:38:04.968Z,8.70
2018-11-25T16:40:33.381Z,8.70
2018-11-25T16:43:02.380Z,8.70
2018-11-25T16:45:30.809Z,8.60
2018-11-25T16:47:59.245Z,8.60
2018-11-25T16:50:27.775Z,8.60
2018-11-25T16:52:56.143Z,8.60
2018-11-25T16:55:24.545Z,8.60
2018-11-25T16:57:52.955Z,8.60
2018-11-25T17:00:21.302Z,8.60
2018-11-25T17:02:49.725Z,8.50
2018-11-25T17:05:23.429Z,8.50
2018-11-25T17:07:56.976Z,8.50
2018-11-25T17:10:25.423Z,8.50
2018-11-25T17:12:54.059Z,8.50
2018-11-25T17:15:23.897Z,8.40
2018-11-25T17:17:52.334Z,8.40
2018-11-25T17:20:20.764Z,8.40
2018-11-25T17:22:49.182Z,8.40
2018-11-25T17:25:17.628Z,8.40
2018-11-25T17:27:46.104Z,8.40
2018-11-25T17:30:15.826Z,8.40
2018-11-25T17:32:45.475Z,8.40
2018-11-25T17:35:16.302Z,8.40
2018-11-25T17:37:44.723Z,8.40
2018-11-25T17:40:13.191Z,8.40
2018-11-25T17:42:41.674Z,8.30
2018-11-25T17:45:12.194Z,8.30
2018-11-25T17:47:42.013Z,8.30
2018-11-25T17:50:19.854Z,8.40
2018-11-25T17:52:48.718Z,8.30
2018-11-25T17:55:17.687Z,8.30
2018-11-25T17:57:46.191Z,8.30
2018-11-25T18:00:16.561Z,8.30
2018-11-25T18:02:44.960Z,8.30
2018-11-25T18:05:13.370Z,8.30
2018-11-25T18:07:41.759Z,8.30
2018-11-25T18:10:12.336Z,8.30
2018-11-25T18:12:41.508Z,8.30
2018-11-25T18:15:13.856Z,8.30
2018-11-25T18:17:44.767Z,8.30
2018-11-25T18:20:13.155Z,8.30
2018-11-25T18:22:45.347Z,8.30
2018-11-25T18:25:13.759Z,8.30
2018-11-25T18:27:42.244Z,8.30
2018-11-25T18:30:14.175Z,8.30
2018-11-25T18:32:43.242Z,8.30
2018-11-25T18:35:11.648Z,8.40
2018-11-25T18:37:40.017Z,8.30
2018-11-25T18:40:10.827Z,8.30
2018-11-25T18:42:39.426Z,8.30
2018-11-25T18:45:12.251Z,8.20
2018-11-25T18:47:40.670Z,8.20
2018-11-25T18:50:13.389Z,8.20
2018-11-25T18:52:42.448Z,8.20
2018-11-25T18:55:09.818Z,8.10
2018-11-25T18:57:38.166Z,8.00
2018-11-25T19:00:09.791Z,8.00
2018-11-25T19:02:43.707Z,8.10
2018-11-25T19:05:12.172Z,8.20
2018-11-25T19:07:40.601Z,8.10
2018-11-25T19:10:11.706Z,8.10
2018-11-25T19:12:44.231Z,7.90
2018-11-25T19:15:10.265Z,7.70
2018-11-25T19:17:39.631Z,7.50
2018-11-25T19:20:25.274Z,7.40
2018-11-25T19:22:54.365Z,7.40
2018-11-25T19:25:22.987Z,7.30
2018-11-25T19:27:51.478Z,7.40
2018-11-25T19:30:26.287Z,7.30
2018-11-25T19:32:49.391Z,7.10
2018-11-25T19:35:20.119Z,6.90
2018-11-25T19:37:49.887Z,6.80
2018-11-25T19:40:21.016Z,6.70
2018-11-25T19:42:50.162Z,6.60
2018-11-25T19:45:23.542Z,6.60
2018-11-25T19:47:51.953Z,6.60
2018-11-25T19:50:28.123Z,6.60
2018-11-25T19:52:56.554Z,6.50
2018-11-25T19:55:25.036Z,6.50
2018-11-25T19:57:53.433Z,6.50
2018-11-25T20:00:22.968Z,6.40
2018-11-25T20:02:51.371Z,6.30
2018-11-25T20:05:19.873Z,6.30
2018-11-25T20:07:48.509Z,6.30
2018-11-25T20:10:21.150Z,6.30
2018-11-25T20:12:51.344Z,6.40
2018-11-25T20:15:20.304Z,6.30
2018-11-25T20:17:54.326Z,6.20
2018-11-25T20:20:22.035Z,6.10
2018-11-25T20:22:51.165Z,6.20
2018-11-25T20:25:20.235Z,6.10
2018-11-25T20:27:50.379Z,6.20
2018-11-25T20:30:20.555Z,6.20
2018-11-25T20:32:54.420Z,6.40
2018-11-25T20:35:22.769Z,6.40
2018-11-25T20:37:56.717Z,6.30
2018-11-25T20:40:25.555Z,6.40
2018-11-25T20:42:53.905Z,6.50
2018-11-25T20:45:28.234Z,6.50
2018-11-25T20:47:59.095Z,6.50
2018-11-25T20:50:26.192Z,6.60
2018-11-25T20:52:59.847Z,6.60
2018-11-25T20:55:28.256Z,6.50
2018-11-25T20:57:57.451Z,6.50
2018-11-25T21:00:27.302Z,6.60
2018-11-25T21:02:55.699Z,6.50
2018-11-25T21:05:24.274Z,6.40
2018-11-25T21:07:52.668Z,6.40
2018-11-25T21:10:21.396Z,6.60
2018-11-25T21:12:51.057Z,6.60
2018-11-25T21:15:19.494Z,6.80
2018-11-25T21:17:47.829Z,6.80
2018-11-25T21:20:17.644Z,6.90
2018-11-25T21:22:46.000Z,7.00
2018-11-25T21:25:15.570Z,7.00
2018-11-25T21:27:43.991Z,6.80
2018-11-25T21:30:14.505Z,6.80
2018-11-25T21:32:43.156Z,6.60
2018-11-25T21:35:12.374Z,6.40
2018-11-25T21:37:40.844Z,6.40
2018-11-25T21:40:21.276Z,6.40
2018-11-25T21:42:49.791Z,6.50
2018-11-25T21:45:19.416Z,6.50
2018-11-25T21:47:48.320Z,6.50
2018-11-25T21:50:17.955Z,6.70
2018-11-25T21:52:46.696Z,6.70
2018-11-25T21:55:17.111Z,6.70
2018-11-25T21:57:45.463Z,6.80
2018-11-25T22:00:15.063Z,6.80
2018-11-25T22:02:43.847Z,6.90
2018-11-25T22:05:12.719Z,7.10
2018-11-25T22:07:41.067Z,7.10
2018-11-25T22:10:11.443Z,6.90
2018-11-25T22:12:40.635Z,6.90
2018-11-25T22:15:13.256Z,6.80
2018-11-25T22:17:41.838Z,6.70
2018-11-25T22:20:11.645Z,6.70
2018-11-25T22:22:40.671Z,6.70
2018-11-25T22:25:10.378Z,6.70
2018-11-25T22:27:38.741Z,6.80
2018-11-25T22:30:13.897Z,6.80
2018-11-25T22:32:42.261Z,6.80
2018-11-25T22:35:15.511Z,6.70
2018-11-25T22:37:44.585Z,6.70
2018-11-25T22:40:14.205Z,6.70
2018-11-25T22:42:43.487Z,6.70
2018-11-25T22:45:14.897Z,6.70
2018-11-25T22:47:43.278Z,6.60
2018-11-25T22:50:17.547Z,6.80
2018-11-25T22:52:45.987Z,6.90
2018-11-25T22:55:19.574Z,7.00
2018-11-25T22:57:47.951Z,7.10
2018-11-25T23:00:33.845Z,7.00
2018-11-25T23:03:02.598Z,7.00
2018-11-25T23:05:42.328Z,7.10
2018-11-25T23:08:11.085Z,7.00
2018-11-25T23:10:39.448Z,7.00
2018-11-25T23:13:07.788Z,7.00
2018-11-25T23:15:36.399Z,7.00
2018-11-25T23:18:04.848Z,7.00
2018-11-25T23:20:33.224Z,7.10
2018-11-25T23:23:01.574Z,6.90
2018-11-25T23:25:29.964Z,6.80
2018-11-25T23:27:58.315Z,6.70
2018-11-25T23:30:26.698Z,6.60
2018-11-25T23:32:55.172Z,6.50
2018-11-25T23:35:25.016Z,6.50
2018-11-25T23:37:53.384Z,6.50
2018-11-25T23:40:23.515Z,6.60
2018-11-25T23:42:51.920Z,6.50
2018-11-25T23:45:20.310Z,6.50
2018-11-25T23:47:48.725Z,6.70
2018-11-25T23:50:17.073Z,6.60
2018-11-25T23:52:47.592Z,6.50
2018-11-25T23:55:16.095Z,6.50
2018-11-25T23:57:44.611Z,6.60
